Time;durP1;ratioP1;P1;durP2;ratioP2;P2;SDS_P1;SDS_P2;PMS_P1;PMS_P2;Temp;Humidity;BMP_temperature;BMP_pressure;BME280_temperature;BME280_humidity;BME280_pressure;Samples;Min_cycle;Max_cycle;Signal;HPM_P1;HPM_P2
2023/04/10 00:00:22;;;;;;;37.03;30.42;;;10.10;95.90;;;;;;4990772;28;20030;-54
2023/04/10 00:03:08;;;;;;;37.60;31.98;;;10.20;96.00;;;;;;4991459;28;20034;-54
2023/04/10 00:05:54;;;;;;;39.42;31.45;;;10.10;96.20;;;;;;4995327;28;20114;-52
2023/04/10 00:08:40;;;;;;;116.05;76.50;;;10.00;96.30;;;;;;4994761;28;20275;-52
2023/04/10 00:11:26;;;;;;;91.43;61.25;;;10.00;96.40;;;;;;4993954;28;20506;-54
2023/04/10 00:14:12;;;;;;;64.53;45.08;;;10.00;96.70;;;;;;4995109;28;20074;-52
2023/04/10 00:16:58;;;;;;;47.17;33.10;;;10.00;97.10;;;;;;4986756;28;20407;-57
2023/04/10 00:19:44;;;;;;;43.53;34.63;;;9.90;97.20;;;;;;4994456;28;20022;-55
2023/04/10 00:22:30;;;;;;;149.02;96.47;;;9.90;97.30;;;;;;4993254;28;20125;-54
2023/04/10 00:25:16;;;;;;;89.95;60.33;;;9.80;97.40;;;;;;4993922;28;20042;-56
2023/04/10 00:28:02;;;;;;;51.05;37.20;;;9.70;97.90;;;;;;4994898;28;20054;-58
2023/04/10 00:30:48;;;;;;;38.65;30.73;;;9.70;98.00;;;;;;4977920;28;20085;-50
2023/04/10 00:33:34;;;;;;;37.70;30.83;;;9.70;98.20;;;;;;4974719;28;20408;-47
2023/04/10 00:36:20;;;;;;;37.85;30.58;;;9.70;98.30;;;;;;4974639;28;20027;-49
2023/04/10 00:39:07;;;;;;;39.38;31.50;;;9.70;98.30;;;;;;4975886;28;20026;-49
2023/04/10 00:41:53;;;;;;;39.72;31.85;;;9.60;98.20;;;;;;4993741;28;20034;-48
2023/04/10 00:44:40;;;;;;;38.08;30.65;;;9.60;98.30;;;;;;4995887;28;20031;-48
2023/04/10 00:47:27;;;;;;;35.13;30.83;;;9.40;98.30;;;;;;4975967;28;20034;-55
2023/04/10 00:50:13;;;;;;;42.67;33.03;;;9.20;98.60;;;;;;4984802;28;20465;-58
2023/04/10 00:52:59;;;;;;;39.67;31.75;;;9.30;98.00;;;;;;4991784;28;20106;-50
2023/04/10 00:55:46;;;;;;;37.85;31.67;;;9.00;98.80;;;;;;4988221;28;20035;-52
2023/04/10 00:58:32;;;;;;;37.92;30.00;;;8.90;99.50;;;;;;4995292;28;20058;-54
2023/04/10 01:01:18;;;;;;;40.28;31.83;;;8.70;99.90;;;;;;4994020;28;20034;-48
2023/04/10 01:04:04;;;;;;;38.78;31.75;;;8.80;99.90;;;;;;4990991;28;20516;-52
2023/04/10 01:06:57;;;;;;;44.38;34.83;;;8.80;99.90;;;;;;4994258;28;20033;-52
2023/04/10 01:09:47;;;;;;;36.83;31.23;;;8.90;99.90;;;;;;4993747;28;20499;-51
2023/04/10 01:12:54;;;;;;;42.50;33.63;;;8.90;99.90;;;;;;4994194;28;20092;-52
2023/04/10 01:15:52;;;;;;;40.88;32.85;;;8.90;99.90;;;;;;4993864;28;20022;-54
2023/04/10 01:18:52;;;;;;;40.78;33.13;;;9.00;99.90;;;;;;4991292;28;20026;-51
2023/04/10 01:21:40;;;;;;;43.50;34.08;;;9.00;99.90;;;;;;4993127;28;20018;-52
2023/04/10 01:24:44;;;;;;;38.60;32.30;;;9.10;99.90;;;;;;4986722;28;20030;-53
2023/04/10 01:27:46;;;;;;;40.47;30.70;;;9.10;99.90;;;;;;4993999;28;20030;-52
2023/04/10 01:30:35;;;;;;;38.83;31.42;;;9.00;99.90;;;;;;4993738;28;20415;-56
2023/04/10 01:33:27;;;;;;;37.33;31.10;;;9.00;99.90;;;;;;4994092;28;20034;-56
2023/04/10 01:36:32;;;;;;;35.75;29.48;;;9.00;99.90;;;;;;4992755;28;20097;-52
2023/04/10 01:39:20;;;;;;;35.75;30.27;;;9.00;99.90;;;;;;4990002;28;20120;-57
2023/04/10 01:42:07;;;;;;;35.45;28.23;;;9.00;99.90;;;;;;4975165;28;20117;-55
2023/04/10 01:44:56;;;;;;;37.63;29.45;;;9.00;99.90;;;;;;4974699;28;20053;-52
2023/04/10 01:47:43;;;;;;;39.20;30.50;;;8.90;99.90;;;;;;4973797;28;20019;-57
2023/04/10 01:50:30;;;;;;;36.58;29.45;;;8.90;99.90;;;;;;4969887;28;20089;-55
2023/04/10 01:53:17;;;;;;;36.83;29.15;;;8.90;99.90;;;;;;4992040;28;20526;-56
2023/04/10 01:56:04;;;;;;;35.30;29.75;;;8.80;99.90;;;;;;4994802;28;20101;-58
2023/04/10 01:58:50;;;;;;;38.38;30.52;;;8.80;99.90;;;;;;4986926;28;20027;-55
2023/04/10 02:01:36;;;;;;;40.15;31.25;;;8.70;99.90;;;;;;4977382;28;20026;-56
2023/04/10 02:04:22;;;;;;;36.40;29.83;;;8.70;99.90;;;;;;4992286;28;20109;-57
2023/04/10 02:07:15;;;;;;;36.40;30.27;;;8.70;99.90;;;;;;4991924;28;20027;-57
2023/04/10 02:10:17;;;;;;;34.80;29.65;;;8.60;99.90;;;;;;4974159;28;20035;-51
2023/04/10 02:13:10;;;;;;;32.50;28.30;;;8.70;99.90;;;;;;4991171;28;20030;-55
2023/04/10 02:16:00;;;;;;;34.80;29.13;;;8.60;99.90;;;;;;4993780;28;20034;-55
2023/04/10 02:18:49;;;;;;;32.17;27.63;;;8.60;99.90;;;;;;4997991;28;20755;-58
2023/04/10 02:21:36;;;;;;;41.63;31.75;;;8.50;99.90;;;;;;4982314;28;20514;-56
2023/04/10 02:24:22;;;;;;;37.40;30.00;;;8.40;99.90;;;;;;4993051;28;20043;-56
2023/04/10 02:27:08;;;;;;;36.28;28.95;;;8.20;99.90;;;;;;4977497;28;20081;-55
2023/04/10 02:29:54;;;;;;;34.53;28.17;;;8.20;99.90;;;;;;4991688;28;20027;-53
2023/04/10 02:32:40;;;;;;;40.05;31.50;;;8.20;99.90;;;;;;4991780;28;20038;-55
2023/04/10 02:35:28;;;;;;;43.22;32.85;;;8.10;99.90;;;;;;4977876;28;20069;-54
2023/04/10 02:38:14;;;;;;;44.42;35.42;;;8.00;99.90;;;;;;4993006;28;20030;-59
2023/04/10 02:41:00;;;;;;;47.17;35.70;;;7.90;99.90;;;;;;4992443;28;20513;-56
2023/04/10 02:43:46;;;;;;;46.90;36.20;;;7.80;99.90;;;;;;4989536;28;20038;-54
2023/04/10 02:46:32;;;;;;;44.55;34.25;;;7.90;99.90;;;;;;4990700;28;20356;-56
2023/04/10 02:49:18;;;;;;;39.75;31.40;;;8.00;99.90;;;;;;4978752;28;20035;-55
2023/04/10 02:52:04;;;;;;;39.08;30.38;;;8.00;99.90;;;;;;4991769;28;20030;-52
2023/04/10 02:54:50;;;;;;;43.80;32.95;;;8.10;99.90;;;;;;4984906;28;20038;-57
2023/04/10 02:57:36;;;;;;;40.33;31.83;;;8.10;99.90;;;;;;4990401;28;20069;-54
2023/04/10 03:00:22;;;;;;;41.35;32.85;;;8.10;99.90;;;;;;4973372;28;20041;-54
2023/04/10 03:03:08;;;;;;;42.78;31.70;;;8.10;99.90;;;;;;4979299;28;20042;-57
2023/04/10 03:05:54;;;;;;;36.20;30.58;;;8.20;99.90;;;;;;4990976;28;20031;-57
2023/04/10 03:08:40;;;;;;;36.60;29.70;;;8.10;99.90;;;;;;4977750;28;20133;-56
2023/04/10 03:11:26;;;;;;;38.10;32.28;;;8.20;99.90;;;;;;4971731;28;20083;-59
2023/04/10 03:14:12;;;;;;;36.47;29.88;;;8.10;99.90;;;;;;4989714;28;20657;-55
2023/04/10 03:16:58;;;;;;;37.88;30.20;;;8.10;99.90;;;;;;4991938;28;20056;-57
2023/04/10 03:19:44;;;;;;;38.35;30.73;;;8.10;99.90;;;;;;4991813;28;20027;-57
2023/04/10 03:22:31;;;;;;;38.40;28.73;;;8.10;99.90;;;;;;4977105;28;20034;-58
2023/04/10 03:25:17;;;;;;;35.30;28.05;;;8.00;99.90;;;;;;4987363;28;20041;-58
2023/04/10 03:28:04;;;;;;;36.15;28.73;;;8.00;99.90;;;;;;4986837;28;20026;-58
2023/04/10 03:30:51;;;;;;;35.67;28.80;;;7.90;99.90;;;;;;4975979;28;20049;-56
2023/04/10 03:33:37;;;;;;;36.05;29.23;;;7.90;99.90;;;;;;4990282;28;20029;-57
2023/04/10 03:36:23;;;;;;;37.75;30.20;;;7.90;99.90;;;;;;4988525;28;20031;-56
2023/04/10 03:39:09;;;;;;;38.97;31.05;;;7.90;99.90;;;;;;4990046;28;20113;-57
2023/04/10 03:41:55;;;;;;;38.70;31.48;;;7.90;99.90;;;;;;4976091;28;20029;-56
2023/04/10 03:44:40;;;;;;;35.05;29.90;;;7.80;99.90;;;;;;4989697;28;20026;-58
2023/04/10 03:47:26;;;;;;;38.33;30.48;;;7.80;99.90;;;;;;4988968;28;20031;-57
2023/04/10 03:50:12;;;;;;;36.97;29.80;;;7.70;99.90;;;;;;4981511;28;20066;-56
2023/04/10 03:52:59;;;;;;;36.67;30.30;;;7.60;99.90;;;;;;4988829;28;20018;-56
2023/04/10 03:55:45;;;;;;;38.08;29.52;;;7.60;99.90;;;;;;4987988;28;20038;-55
2023/04/10 03:58:31;;;;;;;35.60;28.83;;;7.60;99.90;;;;;;4989025;28;20232;-54
2023/04/10 04:01:17;;;;;;;38.95;32.45;;;7.60;99.90;;;;;;4990265;28;20120;-53
2023/04/10 04:04:03;;;;;;;41.20;30.45;;;7.30;99.90;;;;;;4989303;28;20402;-57
2023/04/10 04:06:49;;;;;;;38.35;29.38;;;7.30;99.90;;;;;;4970738;28;20097;-55
2023/04/10 04:09:35;;;;;;;38.92;31.42;;;7.30;99.90;;;;;;4988908;28;20034;-57
2023/04/10 04:12:21;;;;;;;43.10;31.83;;;7.30;99.90;;;;;;4991613;28;20070;-54
2023/04/10 04:15:07;;;;;;;40.95;31.33;;;7.30;99.90;;;;;;4972347;28;20015;-57
2023/04/10 04:17:53;;;;;;;40.30;30.77;;;7.30;99.90;;;;;;4971752;28;20030;-58
2023/04/10 04:20:39;;;;;;;36.55;30.23;;;7.20;99.90;;;;;;4990165;28;20093;-52
2023/04/10 04:23:25;;;;;;;42.47;33.03;;;7.30;99.90;;;;;;4991672;28;20065;-56
2023/04/10 04:26:11;;;;;;;39.97;31.85;;;7.30;99.90;;;;;;4990746;28;20035;-56
2023/04/10 04:28:57;;;;;;;40.45;31.08;;;7.20;99.90;;;;;;4991124;28;20027;-56
2023/04/10 04:31:43;;;;;;;38.38;29.88;;;7.20;99.90;;;;;;4991674;28;20038;-56
2023/04/10 04:34:29;;;;;;;35.33;28.50;;;7.20;99.90;;;;;;4991586;28;20100;-56
2023/04/10 04:37:15;;;;;;;35.28;27.55;;;7.20;99.90;;;;;;4977630;28;20037;-57
2023/04/10 04:40:01;;;;;;;33.67;27.85;;;7.20;99.90;;;;;;4991648;28;20026;-55
2023/04/10 04:42:47;;;;;;;31.35;27.13;;;7.20;99.90;;;;;;4990859;28;20046;-54
2023/04/10 04:45:33;;;;;;;34.65;27.58;;;7.10;99.90;;;;;;4990404;28;20153;-55
2023/04/10 04:48:19;;;;;;;33.72;27.38;;;7.10;99.90;;;;;;4989203;28;20035;-52
2023/04/10 04:51:06;;;;;;;34.63;27.63;;;6.90;99.90;;;;;;4993371;28;20089;-54
2023/04/10 04:53:52;;;;;;;31.35;26.90;;;6.80;99.90;;;;;;4995001;28;20069;-55
2023/04/10 04:56:38;;;;;;;34.55;27.23;;;6.90;99.90;;;;;;4993025;28;20031;-54
2023/04/10 04:59:24;;;;;;;33.22;25.70;;;6.90;99.90;;;;;;4980666;28;20031;-57
2023/04/10 05:02:10;;;;;;;29.60;24.88;;;7.00;99.90;;;;;;4980291;28;20034;-53
2023/04/10 05:04:56;;;;;;;29.88;25.42;;;7.10;99.90;;;;;;4981134;28;20137;-54
2023/04/10 05:07:41;;;;;;;28.55;25.20;;;7.10;99.90;;;;;;4993639;28;20113;-54
2023/04/10 05:10:27;;;;;;;31.17;25.92;;;7.10;99.90;;;;;;4993348;28;20085;-57
2023/04/10 05:13:16;;;;;;;32.88;26.13;;;7.10;99.90;;;;;;4993208;28;20022;-57
2023/04/10 05:16:02;;;;;;;29.80;26.48;;;7.20;99.90;;;;;;4993896;28;20029;-57
2023/04/10 05:18:48;;;;;;;30.17;25.10;;;7.20;99.90;;;;;;4994684;28;20553;-57
2023/04/10 05:21:36;;;;;;;31.05;25.67;;;7.10;99.90;;;;;;4994434;28;20034;-57
2023/04/10 05:24:22;;;;;;;29.48;24.00;;;7.20;99.90;;;;;;4979928;28;20533;-57
2023/04/10 05:27:08;;;;;;;31.45;24.83;;;7.20;99.90;;;;;;4973407;28;20034;-56
2023/04/10 05:29:54;;;;;;;29.85;24.98;;;7.30;99.90;;;;;;4982486;28;20450;-59
2023/04/10 05:32:40;;;;;;;31.83;24.73;;;7.30;99.90;;;;;;4994689;28;20510;-57
2023/04/10 05:35:26;;;;;;;29.30;24.88;;;7.40;99.90;;;;;;4993313;28;20049;-56
2023/04/10 05:38:11;;;;;;;32.15;24.70;;;7.50;99.90;;;;;;4993911;28;20034;-57
2023/04/10 05:40:57;;;;;;;30.33;25.10;;;7.60;99.90;;;;;;4979197;28;20023;-58
2023/04/10 05:43:43;;;;;;;36.17;27.80;;;7.60;99.90;;;;;;4979275;28;20096;-58
2023/04/10 05:46:29;;;;;;;32.85;25.52;;;7.60;99.90;;;;;;4992785;28;20041;-57
2023/04/10 05:49:15;;;;;;;43.28;33.38;;;7.70;99.90;;;;;;4994213;28;20054;-55
2023/04/10 05:52:01;;;;;;;70.13;47.20;;;7.70;99.90;;;;;;4974033;28;20042;-56
2023/04/10 05:54:47;;;;;;;45.83;34.40;;;7.80;99.90;;;;;;4977982;28;20034;-53
2023/04/10 05:57:33;;;;;;;34.10;27.73;;;7.80;99.90;;;;;;4992532;28;20026;-52
2023/04/10 06:00:19;;;;;;;34.03;27.55;;;7.80;99.90;;;;;;4992700;28;20053;-51
2023/04/10 06:03:05;;;;;;;32.05;26.88;;;7.80;99.90;;;;;;4980161;28;20106;-57
2023/04/10 06:05:52;;;;;;;32.67;25.90;;;7.90;99.90;;;;;;4979460;28;20031;-52
2023/04/10 06:08:38;;;;;;;48.58;31.92;;;7.90;99.90;;;;;;4978997;28;20488;-57
2023/04/10 06:11:24;;;;;;;45.13;33.00;;;8.10;99.90;;;;;;4974799;28;20061;-57
2023/04/10 06:14:10;;;;;;;52.20;37.25;;;8.30;99.90;;;;;;4981075;28;20098;-53
2023/04/10 06:16:55;;;;;;;42.65;33.25;;;8.40;99.90;;;;;;4993316;28;20031;-54
2023/04/10 06:19:41;;;;;;;36.85;29.42;;;8.60;99.90;;;;;;4992700;28;20030;-60
2023/04/10 06:22:27;;;;;;;37.20;28.52;;;8.70;99.90;;;;;;4992299;28;20113;-59
2023/04/10 06:25:13;;;;;;;37.38;28.48;;;8.80;99.90;;;;;;4993121;28;20065;-51
2023/04/10 06:27:59;;;;;;;37.60;29.42;;;8.80;99.90;;;;;;4992672;28;20027;-55
2023/04/10 06:30:45;;;;;;;38.85;30.33;;;8.80;99.90;;;;;;4992234;28;20458;-50
2023/04/10 06:33:34;;;;;;;40.90;31.35;;;8.80;99.90;;;;;;4994979;28;20033;-50
2023/04/10 06:36:20;;;;;;;54.15;39.33;;;8.80;99.90;;;;;;4982526;28;20031;-57
2023/04/10 06:39:06;;;;;;;38.67;30.25;;;8.80;99.90;;;;;;5002994;28;20082;-51
2023/04/10 06:41:52;;;;;;;41.13;30.13;;;8.80;99.90;;;;;;4993304;28;20077;-50
2023/04/10 06:44:38;;;;;;;36.92;28.25;;;8.80;99.90;;;;;;4993615;28;20038;-50
2023/04/10 06:47:24;;;;;;;36.03;28.25;;;8.90;99.90;;;;;;4992670;28;20118;-51
2023/04/10 06:50:10;;;;;;;37.50;28.35;;;8.90;99.90;;;;;;4992801;28;20093;-50
2023/04/10 06:52:58;;;;;;;38.53;29.38;;;9.10;99.90;;;;;;4992885;28;20042;-53
2023/04/10 06:55:44;;;;;;;38.28;30.88;;;9.20;99.90;;;;;;4993622;28;20035;-49
2023/04/10 06:58:30;;;;;;;35.15;27.92;;;9.20;99.90;;;;;;4992672;28;20034;-53
2023/04/10 07:01:16;;;;;;;37.15;27.45;;;9.30;99.90;;;;;;4984506;28;20031;-54
2023/04/10 07:04:02;;;;;;;33.10;26.75;;;9.30;99.90;;;;;;4959598;28;20040;-51
2023/04/10 07:06:48;;;;;;;32.95;26.05;;;9.40;99.90;;;;;;4980349;28;20038;-50
2023/04/10 07:09:34;;;;;;;31.70;26.42;;;9.40;99.90;;;;;;4992628;28;20038;-51
2023/04/10 07:12:21;;;;;;;32.47;27.33;;;9.60;99.90;;;;;;4991947;28;20376;-52
2023/04/10 07:15:08;;;;;;;32.83;26.02;;;9.80;99.90;;;;;;4991718;28;20042;-56
2023/04/10 07:17:55;;;;;;;70.15;57.75;;;10.10;99.90;;;;;;4992403;28;20411;-50
2023/04/10 07:20:41;;;;;;;39.60;30.63;;;10.20;99.90;;;;;;4992482;28;20157;-53
2023/04/10 07:23:27;;;;;;;38.53;30.02;;;10.30;99.80;;;;;;4992363;28;20168;-52
2023/04/10 07:26:14;;;;;;;42.40;34.10;;;10.30;99.70;;;;;;4991772;28;20042;-50
2023/04/10 07:29:01;;;;;;;45.22;36.72;;;10.40;99.50;;;;;;4971918;28;20075;-54
2023/04/10 07:31:47;;;;;;;52.85;38.08;;;10.50;99.40;;;;;;4973397;28;20419;-49
2023/04/10 07:34:33;;;;;;;47.38;36.55;;;10.50;99.30;;;;;;4973091;28;20070;-51
2023/04/10 07:37:19;;;;;;;48.75;35.25;;;10.60;99.10;;;;;;4976208;28;20410;-53
2023/04/10 07:40:07;;;;;;;39.97;29.73;;;10.70;99.10;;;;;;4973190;28;20030;-51
2023/04/10 07:42:53;;;;;;;38.88;30.90;;;10.80;98.80;;;;;;4979900;28;20443;-57
2023/04/10 07:45:40;;;;;;;36.83;28.52;;;10.90;98.80;;;;;;4991671;28;20404;-50
2023/04/10 07:48:26;;;;;;;33.70;28.77;;;11.10;98.80;;;;;;4977819;28;20090;-54
2023/04/10 07:51:12;;;;;;;41.90;31.38;;;11.30;98.30;;;;;;4992934;28;20435;-53
2023/04/10 07:53:58;;;;;;;46.67;36.20;;;11.20;98.00;;;;;;4990919;28;20033;-54
2023/04/10 07:56:44;;;;;;;40.22;30.95;;;11.30;97.90;;;;;;4977918;28;20022;-52
2023/04/10 07:59:30;;;;;;;35.03;28.35;;;11.50;98.00;;;;;;4990170;28;20050;-57
2023/04/10 08:02:16;;;;;;;33.80;27.10;;;11.50;97.90;;;;;;4990974;28;20648;-54
2023/04/10 08:05:02;;;;;;;35.30;27.48;;;11.60;97.60;;;;;;4987014;28;20109;-51
2023/04/10 08:07:48;;;;;;;33.03;27.27;;;11.80;97.60;;;;;;4973192;28;20062;-54
2023/04/10 08:10:38;;;;;;;34.97;26.77;;;11.80;97.50;;;;;;4991283;28;20419;-56
2023/04/10 08:13:24;;;;;;;30.98;25.95;;;11.90;97.20;;;;;;4968312;28;20105;-53
2023/04/10 08:16:09;;;;;;;30.08;24.10;;;11.80;97.30;;;;;;4988990;28;20495;-55
2023/04/10 08:18:56;;;;;;;32.65;26.48;;;11.90;97.20;;;;;;4990723;28;20026;-53
2023/04/10 08:21:42;;;;;;;34.33;28.48;;;12.00;96.90;;;;;;4990853;28;20088;-54
2023/04/10 08:24:28;;;;;;;29.95;24.92;;;12.10;97.10;;;;;;4977922;28;20065;-57
2023/04/10 08:27:15;;;;;;;29.02;23.40;;;12.20;96.90;;;;;;4980843;28;20499;-49
2023/04/10 08:30:01;;;;;;;28.90;24.45;;;12.30;96.30;;;;;;4994500;28;20122;-52
2023/04/10 08:32:47;;;;;;;28.33;23.52;;;12.30;96.70;;;;;;4992479;28;20406;-54
2023/04/10 08:35:32;;;;;;;28.10;22.70;;;12.40;96.50;;;;;;4990210;28;20030;-51
2023/04/10 08:38:20;;;;;;;25.95;22.10;;;12.60;96.10;;;;;;4994457;28;20454;-54
2023/04/10 08:41:08;;;;;;;28.48;25.10;;;12.80;96.10;;;;;;4995194;28;20030;-55
2023/04/10 08:43:56;;;;;;;26.85;22.52;;;12.90;95.80;;;;;;4994381;28;20030;-55
2023/04/10 08:46:43;;;;;;;28.95;24.42;;;13.10;95.80;;;;;;4993222;28;20039;-52
2023/04/10 08:49:31;;;;;;;27.17;23.38;;;13.10;95.50;;;;;;4994117;28;20045;-52
2023/04/10 08:52:22;;;;;;;28.40;23.65;;;13.10;95.70;;;;;;4962072;28;20042;-52
2023/04/10 08:55:10;;;;;;;29.83;25.00;;;13.30;95.50;;;;;;4994986;28;20035;-49
2023/04/10 08:57:56;;;;;;;32.90;27.42;;;13.30;94.90;;;;;;4993894;28;20561;-55
2023/04/10 09:00:42;;;;;;;26.52;23.45;;;13.00;95.10;;;;;;4989895;28;20652;-54
2023/04/10 09:03:28;;;;;;;31.08;26.13;;;12.90;95.10;;;;;;4979388;28;20042;-51
2023/04/10 09:06:14;;;;;;;31.80;25.52;;;12.80;95.20;;;;;;4993380;28;20065;-50
2023/04/10 09:09:00;;;;;;;28.55;23.98;;;13.00;95.10;;;;;;4996579;28;20019;-55
2023/04/10 09:11:55;;;;;;;24.45;21.08;;;13.10;94.60;;;;;;4997311;28;20030;-54
2023/04/10 09:14:41;;;;;;;25.13;21.80;;;13.20;94.30;;;;;;4997341;28;20014;-54
2023/04/10 09:17:27;;;;;;;25.35;22.13;;;13.40;94.10;;;;;;4997544;28;20065;-54
2023/04/10 09:20:24;;;;;;;24.55;20.35;;;13.40;93.60;;;;;;4991638;28;20114;-51
2023/04/10 09:23:20;;;;;;;29.67;23.33;;;13.50;93.50;;;;;;4991464;28;20022;-52
2023/04/10 09:26:26;;;;;;;22.20;18.85;;;13.70;92.80;;;;;;4994063;28;20019;-55
2023/04/10 09:29:12;;;;;;;20.40;18.17;;;13.70;90.80;;;;;;4987712;28;20039;-56
2023/04/10 09:31:57;;;;;;;26.35;21.17;;;13.60;91.10;;;;;;4978047;28;20023;-51
2023/04/10 09:34:52;;;;;;;37.53;33.47;;;13.50;91.50;;;;;;4992952;28;20026;-60
2023/04/10 09:37:40;;;;;;;23.40;19.63;;;13.50;92.00;;;;;;4985836;28;20026;-51
2023/04/10 09:40:26;;;;;;;20.10;17.35;;;13.60;91.90;;;;;;4993440;28;20018;-54
2023/04/10 09:43:20;;;;;;;21.45;18.00;;;13.80;91.20;;;;;;4991365;28;20034;-51
2023/04/10 09:46:06;;;;;;;20.33;18.13;;;14.00;91.10;;;;;;4993087;28;20027;-49
2023/04/10 09:49:04;;;;;;;19.70;17.35;;;14.10;91.10;;;;;;4992459;28;20031;-51
2023/04/10 09:51:50;;;;;;;22.70;18.88;;;14.00;91.50;;;;;;4989610;28;20054;-52
2023/04/10 09:54:36;;;;;;;24.95;19.75;;;14.00;91.90;;;;;;4992835;28;20079;-57
2023/04/10 09:57:24;;;;;;;23.30;20.30;;;14.00;92.20;;;;;;4983537;28;20030;-56
2023/04/10 10:00:13;;;;;;;24.08;20.75;;;14.00;92.60;;;;;;4988678;28;20034;-51
2023/04/10 10:03:19;;;;;;;22.70;19.83;;;14.00;92.80;;;;;;4974973;28;20391;-53
2023/04/10 10:06:06;;;;;;;20.58;18.35;;;14.20;92.50;;;;;;4991797;28;20038;-53
2023/04/10 10:08:52;;;;;;;24.73;20.08;;;14.10;92.30;;;;;;4992037;28;20035;-56
2023/04/10 10:11:38;;;;;;;22.80;19.15;;;14.00;92.70;;;;;;4992697;28;20034;-59
2023/04/10 10:14:27;;;;;;;19.70;17.60;;;13.90;92.50;;;;;;4993177;28;20030;-58
2023/04/10 10:17:17;;;;;;;19.83;16.08;;;14.10;92.10;;;;;;4991243;28;20058;-58
2023/04/10 10:20:10;;;;;;;21.27;17.08;;;14.20;91.90;;;;;;4989988;28;20083;-53
2023/04/10 10:22:57;;;;;;;19.35;16.52;;;14.40;92.00;;;;;;4990240;28;20034;-60
2023/04/10 10:25:45;;;;;;;23.05;17.67;;;14.60;91.60;;;;;;4992464;28;20026;-58
2023/04/10 10:28:33;;;;;;;18.75;16.75;;;14.50;91.50;;;;;;4990462;28;20026;-59
2023/04/10 10:31:22;;;;;;;18.35;15.88;;;14.60;91.50;;;;;;4990679;28;20026;-58
2023/04/10 10:34:08;;;;;;;20.38;17.52;;;14.70;91.60;;;;;;4989122;28;20038;-61
2023/04/10 10:36:56;;;;;;;18.13;15.93;;;14.60;91.40;;;;;;4990654;28;20098;-60
2023/04/10 10:40:08;;;;;;;19.10;16.38;;;14.50;91.40;;;;;;4991811;28;20034;-57
2023/04/10 10:43:03;;;;;;;20.10;17.05;;;14.50;91.50;;;;;;4992801;28;20033;-56
2023/04/10 10:45:58;;;;;;;21.02;16.77;;;14.50;91.50;;;;;;4990966;28;20030;-58
2023/04/10 10:49:00;;;;;;;24.35;15.98;;;14.60;91.50;;;;;;4992197;28;20057;-59
2023/04/10 10:51:50;;;;;;;20.13;16.42;;;14.60;91.10;;;;;;4989407;28;20029;-59
2023/04/10 10:54:36;;;;;;;21.25;17.08;;;14.60;91.20;;;;;;4990762;28;20018;-56
2023/04/10 10:57:45;;;;;;;19.80;16.45;;;14.60;91.20;;;;;;4988891;28;20036;-60
2023/04/10 11:00:49;;;;;;;18.58;15.52;;;14.70;91.10;;;;;;4989965;28;20023;-57
2023/04/10 11:03:36;;;;;;;27.63;19.73;;;14.60;91.00;;;;;;4995686;28;20018;-51
2023/04/10 11:06:49;;;;;;;20.67;16.17;;;14.80;90.80;;;;;;4983938;28;20530;-52
2023/04/10 11:09:51;;;;;;;21.90;15.63;;;14.90;90.80;;;;;;4983725;28;20078;-53
2023/04/10 11:13:16;;;;;;;19.38;16.73;;;15.00;90.70;;;;;;4992864;28;20030;-53
2023/04/10 11:16:04;;;;;;;19.75;15.48;;;15.20;90.60;;;;;;4990815;28;20126;-51
2023/04/10 11:18:50;;;;;;;20.38;16.50;;;15.20;90.40;;;;;;4965586;28;20430;-52
2023/04/10 11:21:59;;;;;;;22.48;17.48;;;15.30;90.30;;;;;;4993120;28;20399;-51
2023/04/10 11:24:51;;;;;;;19.40;14.18;;;15.50;89.60;;;;;;4995394;28;20041;-52
2023/04/10 11:27:48;;;;;;;18.75;15.05;;;15.60;89.50;;;;;;4996689;28;20041;-52
2023/04/10 11:30:35;;;;;;;19.83;15.23;;;15.40;89.00;;;;;;4990141;28;20030;-49
2023/04/10 11:33:21;;;;;;;19.65;15.77;;;15.50;88.90;;;;;;4991988;28;20570;-54
2023/04/10 11:36:07;;;;;;;15.95;13.10;;;15.60;87.90;;;;;;4972252;28;20027;-54
2023/04/10 11:39:01;;;;;;;14.45;12.85;;;15.50;87.60;;;;;;4983527;28;20423;-50
2023/04/10 11:41:48;;;;;;;14.70;12.45;;;15.60;87.20;;;;;;4991988;28;20026;-51
2023/04/10 11:44:34;;;;;;;15.75;13.55;;;15.70;88.30;;;;;;4991676;28;20035;-53
2023/04/10 11:47:20;;;;;;;18.10;15.20;;;15.70;87.80;;;;;;4982358;28;20035;-53
2023/04/10 11:50:07;;;;;;;17.90;14.43;;;15.60;88.30;;;;;;4986822;28;20058;-49
2023/04/10 11:52:53;;;;;;;16.75;14.43;;;15.50;89.10;;;;;;4992049;28;20137;-54
2023/04/10 11:55:39;;;;;;;15.88;14.18;;;15.60;89.10;;;;;;4977022;28;20026;-51
2023/04/10 11:58:27;;;;;;;17.77;14.55;;;15.80;88.70;;;;;;4990599;28;20495;-53
2023/04/10 12:01:13;;;;;;;15.98;13.93;;;15.80;88.00;;;;;;4993549;28;20038;-53
2023/04/10 12:04:00;;;;;;;13.98;12.48;;;15.70;88.10;;;;;;4995527;28;20077;-52
2023/04/10 12:06:50;;;;;;;14.13;12.60;;;15.80;87.90;;;;;;4994458;28;20042;-53
2023/04/10 12:09:36;;;;;;;14.20;12.70;;;15.80;88.10;;;;;;4990747;28;20038;-55
2023/04/10 12:12:34;;;;;;;14.35;11.85;;;15.80;87.90;;;;;;4994363;28;20070;-56
2023/04/10 12:15:27;;;;;;;13.57;11.77;;;16.00;87.80;;;;;;4995257;28;20384;-54
2023/04/10 12:18:13;;;;;;;15.23;11.88;;;16.20;86.90;;;;;;4975232;28;20031;-51
2023/04/10 12:21:00;;;;;;;12.93;11.50;;;16.30;86.90;;;;;;4993010;28;20403;-55
2023/04/10 12:23:46;;;;;;;18.35;11.88;;;16.50;86.60;;;;;;4994585;28;20030;-50
2023/04/10 12:26:32;;;;;;;14.25;12.13;;;16.50;85.90;;;;;;4974797;28;20369;-51
2023/04/10 12:29:18;;;;;;;17.60;15.80;;;16.30;85.70;;;;;;4977190;28;20085;-51
2023/04/10 12:32:08;;;;;;;15.15;12.68;;;16.20;85.80;;;;;;4994539;28;20495;-51
2023/04/10 12:35:00;;;;;;;13.55;11.40;;;16.40;86.60;;;;;;4994260;28;20022;-53
2023/04/10 12:37:46;;;;;;;13.60;11.98;;;16.50;86.10;;;;;;4993287;28;20410;-51
2023/04/10 12:40:32;;;;;;;15.35;12.55;;;16.70;85.90;;;;;;4995084;28;20034;-55
2023/04/10 12:43:45;;;;;;;14.77;12.27;;;16.60;85.60;;;;;;4993997;28;20050;-53
2023/04/10 12:46:31;;;;;;;14.70;13.07;;;16.80;84.80;;;;;;4993578;28;20034;-55
2023/04/10 12:49:17;;;;;;;13.50;12.10;;;16.80;84.10;;;;;;4993627;28;20058;-57
2023/04/10 12:52:03;;;;;;;14.18;11.73;;;17.00;83.90;;;;;;4974748;28;20031;-57
2023/04/10 12:54:49;;;;;;;13.57;11.60;;;17.10;83.20;;;;;;4978640;28;20536;-54
2023/04/10 12:57:35;;;;;;;12.98;11.57;;;17.30;82.90;;;;;;4994359;28;20066;-52
2023/04/10 13:00:21;;;;;;;20.77;13.13;;;17.50;82.70;;;;;;4994284;28;20034;-52
2023/04/10 13:03:07;;;;;;;14.57;11.73;;;17.70;81.80;;;;;;4993950;28;20034;-55
2023/04/10 13:05:53;;;;;;;15.27;11.95;;;17.60;81.60;;;;;;4993879;28;20105;-50
2023/04/10 13:08:39;;;;;;;13.10;11.13;;;17.40;81.30;;;;;;4980352;28;20086;-50
2023/04/10 13:11:25;;;;;;;12.25;11.02;;;17.30;81.40;;;;;;4992892;28;20073;-54
2023/04/10 13:14:11;;;;;;;14.27;11.88;;;17.20;82.20;;;;;;4980596;28;20038;-52
2023/04/10 13:16:57;;;;;;;13.88;12.10;;;17.10;82.90;;;;;;4993400;28;20026;-55
2023/04/10 13:19:43;;;;;;;13.38;11.98;;;17.20;83.20;;;;;;4993022;28;20041;-51
2023/04/10 13:22:29;;;;;;;13.07;11.68;;;17.40;82.90;;;;;;5011390;28;20029;-54
2023/04/10 13:25:15;;;;;;;14.48;11.35;;;17.80;81.70;;;;;;5014036;28;20506;-52
2023/04/10 13:28:01;;;;;;;14.80;11.32;;;17.70;79.40;;;;;;5013234;28;20490;-55
2023/04/10 13:30:47;;;;;;;12.65;10.52;;;17.50;79.80;;;;;;5005901;28;20049;-55
2023/04/10 13:33:33;;;;;;;12.25;10.75;;;17.70;78.30;;;;;;4992873;28;20034;-53
2023/04/10 13:36:19;;;;;;;10.88;9.75;;;17.80;77.70;;;;;;4993515;28;20033;-54
2023/04/10 13:39:05;;;;;;;13.48;10.23;;;17.50;78.10;;;;;;4993344;28;20487;-54
2023/04/10 13:41:51;;;;;;;13.80;11.27;;;17.30;78.50;;;;;;4994052;28;20193;-53
2023/04/10 13:44:37;;;;;;;14.50;10.93;;;17.10;79.00;;;;;;4978166;28;20080;-53
2023/04/10 13:47:22;;;;;;;11.68;10.18;;;17.40;78.90;;;;;;4992739;28;20038;-56
2023/04/10 13:50:09;;;;;;;11.65;10.45;;;17.80;78.90;;;;;;4993398;28;20118;-52
2023/04/10 13:52:55;;;;;;;10.75;9.65;;;18.40;77.40;;;;;;4974922;28;20034;-54
2023/04/10 13:55:42;;;;;;;10.57;9.00;;;18.80;76.30;;;;;;4974461;28;20485;-51
2023/04/10 13:58:30;;;;;;;10.10;9.10;;;18.80;75.90;;;;;;4985121;28;20061;-59
2023/04/10 14:01:16;;;;;;;11.43;9.98;;;19.10;75.30;;;;;;4978965;28;20031;-56
2023/04/10 14:04:02;;;;;;;12.00;10.57;;;19.20;74.90;;;;;;4979146;28;20046;-57
2023/04/10 14:06:50;;;;;;;11.07;9.98;;;19.20;74.50;;;;;;4993238;28;20516;-57
2023/04/10 14:09:37;;;;;;;11.82;9.95;;;19.20;74.10;;;;;;4992998;28;20031;-58
2023/04/10 14:12:23;;;;;;;11.90;10.65;;;18.90;74.00;;;;;;4992565;28;20041;-58
2023/04/10 14:15:09;;;;;;;11.43;9.57;;;18.40;74.50;;;;;;4978984;28;20058;-53
2023/04/10 14:17:55;;;;;;;12.63;10.43;;;18.10;75.20;;;;;;4972420;28;20492;-57